sensor_id;sensor_type;location;lat;lon;timestamp;temperature;humidity
27128;DHT22;14660;49.008;8.390;2023-03-14T00:01:31;13.20;99.90
27128;DHT22;14660;49.008;8.390;2023-03-14T00:03:58;13.20;99.90
27128;DHT22;14660;49.008;8.390;2023-03-14T00:06:27;13.20;99.90
27128;DHT22;14660;49.008;8.390;2023-03-14T00:08:54;13.20;99.90
27128;DHT22;14660;49.008;8.390;2023-03-14T00:11:22;13.30;99.90
27128;DHT22;14660;49.008;8.390;2023-03-14T00:13:52;13.20;99.90
27128;DHT22;14660;49.008;8.390;2023-03-14T00:16:19;13.30;99.90
27128;DHT22;14660;49.008;8.390;2023-03-14T00:18:47;13.30;99.90
27128;DHT22;14660;49.008;8.390;2023-03-14T00:21:14;13.30;99.90
27128;DHT22;14660;49.008;8.390;2023-03-14T00:23:42;13.30;99.90
27128;DHT22;14660;49.008;8.390;2023-03-14T00:26:11;13.30;99.90
27128;DHT22;14660;49.008;8.390;2023-03-14T00:28:39;13.30;99.90
27128;DHT22;14660;49.008;8.390;2023-03-14T00:31:09;13.30;99.90
27128;DHT22;14660;49.008;8.390;2023-03-14T00:33:36;13.30;99.90
27128;DHT22;14660;49.008;8.390;2023-03-14T00:36:06;13.40;99.90
27128;DHT22;14660;49.008;8.390;2023-03-14T00:38:36;13.30;99.90
27128;DHT22;14660;49.008;8.390;2023-03-14T00:41:17;13.30;99.90
27128;DHT22;14660;49.008;8.390;2023-03-14T00:43:45;13.30;99.90
27128;DHT22;14660;49.008;8.390;2023-03-14T00:46:12;13.30;99.90
27128;DHT22;14660;49.008;8.390;2023-03-14T00:48:39;13.30;99.90
27128;DHT22;14660;49.008;8.390;2023-03-14T00:51:08;13.30;99.90
27128;DHT22;14660;49.008;8.390;2023-03-14T00:53:39;13.40;99.90
27128;DHT22;14660;49.008;8.390;2023-03-14T00:56:07;13.30;99.90
27128;DHT22;14660;49.008;8.390;2023-03-14T00:58:34;13.30;99.90
27128;DHT22;14660;49.008;8.390;2023-03-14T01:01:14;13.30;99.90
27128;DHT22;14660;49.008;8.390;2023-03-14T01:03:41;13.30;99.90
27128;DHT22;14660;49.008;8.390;2023-03-14T01:06:11;13.30;99.90
27128;DHT22;14660;49.008;8.390;2023-03-14T01:08:38;13.40;99.90
27128;DHT22;14660;49.008;8.390;2023-03-14T01:11:10;13.30;99.90
27128;DHT22;14660;49.008;8.390;2023-03-14T01:13:38;13.30;99.90
27128;DHT22;14660;49.008;8.390;2023-03-14T01:16:08;13.30;99.90
27128;DHT22;14660;49.008;8.390;2023-03-14T01:18:36;13.30;99.90
27128;DHT22;14660;49.008;8.390;2023-03-14T01:21:24;13.20;99.90
27128;DHT22;14660;49.008;8.390;2023-03-14T01:23:54;13.20;99.90
27128;DHT22;14660;49.008;8.390;2023-03-14T01:26:34;13.20;99.90
27128;DHT22;14660;49.008;8.390;2023-03-14T01:29:02;13.20;99.90
27128;DHT22;14660;49.008;8.390;2023-03-14T01:31:29;13.30;99.90
27128;DHT22;14660;49.008;8.390;2023-03-14T01:33:55;13.10;99.90
27128;DHT22;14660;49.008;8.390;2023-03-14T01:36:23;13.10;99.90
27128;DHT22;14660;49.008;8.390;2023-03-14T01:38:48;13.10;99.90
27128;DHT22;14660;49.008;8.390;2023-03-14T01:41:19;13.10;99.90
27128;DHT22;14660;49.008;8.390;2023-03-14T01:43:45;13.00;99.90
27128;DHT22;14660;49.008;8.390;2023-03-14T01:49:34;13.00;99.90
27128;DHT22;14660;49.008;8.390;2023-03-14T01:52:22;13.00;99.90
27128;DHT22;14660;49.008;8.390;2023-03-14T01:54:54;13.10;99.90
27128;DHT22;14660;49.008;8.390;2023-03-14T01:57:32;13.00;99.90
27128;DHT22;14660;49.008;8.390;2023-03-14T02:00:19;13.00;99.90
27128;DHT22;14660;49.008;8.390;2023-03-14T02:02:47;12.90;99.90
27128;DHT22;14660;49.008;8.390;2023-03-14T02:05:21;12.90;99.90
27128;DHT22;14660;49.008;8.390;2023-03-14T02:07:58;12.90;99.90
27128;DHT22;14660;49.008;8.390;2023-03-14T02:10:32;12.80;99.90
27128;DHT22;14660;49.008;8.390;2023-03-14T02:13:02;12.70;99.90
27128;DHT22;14660;49.008;8.390;2023-03-14T02:15:29;12.80;99.90
27128;DHT22;14660;49.008;8.390;2023-03-14T02:17:57;12.80;99.90
27128;DHT22;14660;49.008;8.390;2023-03-14T02:27:10;12.80;99.90
27128;DHT22;14660;49.008;8.390;2023-03-14T02:29:15;12.80;99.90
27128;DHT22;14660;49.008;8.390;2023-03-14T02:31:42;12.80;99.90
27128;DHT22;14660;49.008;8.390;2023-03-14T02:34:12;12.80;99.90
27128;DHT22;14660;49.008;8.390;2023-03-14T02:36:39;12.80;99.90
27128;DHT22;14660;49.008;8.390;2023-03-14T02:39:32;12.60;99.90
27128;DHT22;14660;49.008;8.390;2023-03-14T02:42:00;12.70;99.90
27128;DHT22;14660;49.008;8.390;2023-03-14T02:44:26;12.60;99.90
27128;DHT22;14660;49.008;8.390;2023-03-14T02:46:52;12.70;99.90
27128;DHT22;14660;49.008;8.390;2023-03-14T02:49:20;12.60;99.90
27128;DHT22;14660;49.008;8.390;2023-03-14T02:51:48;12.60;99.90
27128;DHT22;14660;49.008;8.390;2023-03-14T02:54:15;12.60;99.90
27128;DHT22;14660;49.008;8.390;2023-03-14T02:56:42;12.60;99.90
27128;DHT22;14660;49.008;8.390;2023-03-14T02:59:09;12.60;99.90
27128;DHT22;14660;49.008;8.390;2023-03-14T03:01:36;12.50;99.90
27128;DHT22;14660;49.008;8.390;2023-03-14T03:04:03;12.50;99.90
27128;DHT22;14660;49.008;8.390;2023-03-14T03:06:30;12.50;99.90
27128;DHT22;14660;49.008;8.390;2023-03-14T03:08:57;12.50;99.90
27128;DHT22;14660;49.008;8.390;2023-03-14T03:11:23;12.60;99.90
27128;DHT22;14660;49.008;8.390;2023-03-14T03:13:50;12.60;99.90
27128;DHT22;14660;49.008;8.390;2023-03-14T03:16:17;12.50;99.90
27128;DHT22;14660;49.008;8.390;2023-03-14T03:18:44;12.50;99.90
27128;DHT22;14660;49.008;8.390;2023-03-14T03:21:11;12.50;99.90
27128;DHT22;14660;49.008;8.390;2023-03-14T03:23:38;12.50;99.90
27128;DHT22;14660;49.008;8.390;2023-03-14T03:26:06;12.60;99.90
27128;DHT22;14660;49.008;8.390;2023-03-14T03:28:32;12.50;99.90
27128;DHT22;14660;49.008;8.390;2023-03-14T03:31:06;12.40;99.90
27128;DHT22;14660;49.008;8.390;2023-03-14T03:33:33;12.50;99.90
27128;DHT22;14660;49.008;8.390;2023-03-14T03:36:00;12.50;99.90
27128;DHT22;14660;49.008;8.390;2023-03-14T03:38:27;12.40;99.90
27128;DHT22;14660;49.008;8.390;2023-03-14T03:40:54;12.50;99.90
27128;DHT22;14660;49.008;8.390;2023-03-14T03:43:21;12.50;99.90
27128;DHT22;14660;49.008;8.390;2023-03-14T03:45:47;12.50;99.90
27128;DHT22;14660;49.008;8.390;2023-03-14T03:48:14;12.50;99.90
27128;DHT22;14660;49.008;8.390;2023-03-14T03:50:47;12.40;99.90
27128;DHT22;14660;49.008;8.390;2023-03-14T03:53:14;12.40;99.90
27128;DHT22;14660;49.008;8.390;2023-03-14T03:55:44;12.50;99.90
27128;DHT22;14660;49.008;8.390;2023-03-14T03:58:11;12.40;99.90
27128;DHT22;14660;49.008;8.390;2023-03-14T04:00:38;12.50;99.90
27128;DHT22;14660;49.008;8.390;2023-03-14T04:03:06;12.40;99.90
27128;DHT22;14660;49.008;8.390;2023-03-14T04:05:33;12.40;99.90
27128;DHT22;14660;49.008;8.390;2023-03-14T04:08:04;12.40;99.90
27128;DHT22;14660;49.008;8.390;2023-03-14T04:10:35;12.40;99.90
27128;DHT22;14660;49.008;8.390;2023-03-14T04:13:02;12.40;99.90
27128;DHT22;14660;49.008;8.390;2023-03-14T04:15:28;12.40;99.90
27128;DHT22;14660;49.008;8.390;2023-03-14T04:18:01;12.40;99.90
27128;DHT22;14660;49.008;8.390;2023-03-14T04:20:28;12.40;99.90
27128;DHT22;14660;49.008;8.390;2023-03-14T04:22:55;12.40;99.90
27128;DHT22;14660;49.008;8.390;2023-03-14T04:25:20;12.40;99.90
27128;DHT22;14660;49.008;8.390;2023-03-14T04:27:48;12.40;99.90
27128;DHT22;14660;49.008;8.390;2023-03-14T04:30:15;12.30;99.90
27128;DHT22;14660;49.008;8.390;2023-03-14T04:32:41;12.20;99.90
27128;DHT22;14660;49.008;8.390;2023-03-14T04:35:08;12.20;99.90
27128;DHT22;14660;49.008;8.390;2023-03-14T04:37:35;12.20;99.90
27128;DHT22;14660;49.008;8.390;2023-03-14T04:40:03;12.20;99.90
27128;DHT22;14660;49.008;8.390;2023-03-14T04:42:33;12.20;99.90
27128;DHT22;14660;49.008;8.390;2023-03-14T04:45:00;12.20;99.90
27128;DHT22;14660;49.008;8.390;2023-03-14T04:47:27;12.20;99.90
27128;DHT22;14660;49.008;8.390;2023-03-14T04:49:53;12.10;99.90
27128;DHT22;14660;49.008;8.390;2023-03-14T04:52:21;12.20;99.90
27128;DHT22;14660;49.008;8.390;2023-03-14T04:54:48;12.20;99.90
27128;DHT22;14660;49.008;8.390;2023-03-14T04:57:15;12.20;99.90
27128;DHT22;14660;49.008;8.390;2023-03-14T04:59:42;12.20;99.90
27128;DHT22;14660;49.008;8.390;2023-03-14T05:02:08;12.30;99.90
27128;DHT22;14660;49.008;8.390;2023-03-14T05:04:35;12.30;99.90
27128;DHT22;14660;49.008;8.390;2023-03-14T05:07:02;12.40;99.90
27128;DHT22;14660;49.008;8.390;2023-03-14T05:09:29;12.40;99.90
27128;DHT22;14660;49.008;8.390;2023-03-14T05:11:56;12.40;99.90
27128;DHT22;14660;49.008;8.390;2023-03-14T05:14:23;12.40;99.90
27128;DHT22;14660;49.008;8.390;2023-03-14T05:16:49;12.30;99.90
27128;DHT22;14660;49.008;8.390;2023-03-14T05:19:16;12.30;99.90
27128;DHT22;14660;49.008;8.390;2023-03-14T05:21:43;12.30;99.90
27128;DHT22;14660;49.008;8.390;2023-03-14T05:24:11;12.40;99.90
27128;DHT22;14660;49.008;8.390;2023-03-14T05:26:37;12.30;99.90
27128;DHT22;14660;49.008;8.390;2023-03-14T05:29:04;12.40;99.90
27128;DHT22;14660;49.008;8.390;2023-03-14T05:31:31;12.50;99.90
27128;DHT22;14660;49.008;8.390;2023-03-14T05:33:59;12.50;99.90
27128;DHT22;14660;49.008;8.390;2023-03-14T05:36:26;12.40;99.90
27128;DHT22;14660;49.008;8.390;2023-03-14T05:38:53;12.50;99.90
27128;DHT22;14660;49.008;8.390;2023-03-14T05:41:20;12.40;99.90
27128;DHT22;14660;49.008;8.390;2023-03-14T05:43:47;12.40;99.90
27128;DHT22;14660;49.008;8.390;2023-03-14T05:46:14;12.40;99.90
27128;DHT22;14660;49.008;8.390;2023-03-14T05:48:41;12.40;99.90
27128;DHT22;14660;49.008;8.390;2023-03-14T05:51:07;12.50;99.90
27128;DHT22;14660;49.008;8.390;2023-03-14T05:53:34;12.40;99.90
27128;DHT22;14660;49.008;8.390;2023-03-14T05:56:01;12.40;99.90
27128;DHT22;14660;49.008;8.390;2023-03-14T05:58:28;12.30;99.90
27128;DHT22;14660;49.008;8.390;2023-03-14T06:00:53;12.20;99.90
27128;DHT22;14660;49.008;8.390;2023-03-14T06:03:20;12.30;99.90
27128;DHT22;14660;49.008;8.390;2023-03-14T06:05:49;12.30;99.90
27128;DHT22;14660;49.008;8.390;2023-03-14T06:08:17;12.30;99.90
27128;DHT22;14660;49.008;8.390;2023-03-14T06:10:43;12.20;99.90
27128;DHT22;14660;49.008;8.390;2023-03-14T06:13:10;12.10;99.90
27128;DHT22;14660;49.008;8.390;2023-03-14T06:15:37;12.10;99.90
27128;DHT22;14660;49.008;8.390;2023-03-14T06:18:04;12.10;99.90
27128;DHT22;14660;49.008;8.390;2023-03-14T06:20:32;12.10;99.90
27128;DHT22;14660;49.008;8.390;2023-03-14T06:23:01;12.10;99.90
27128;DHT22;14660;49.008;8.390;2023-03-14T06:25:28;12.10;99.90
27128;DHT22;14660;49.008;8.390;2023-03-14T06:27:55;12.10;99.90
27128;DHT22;14660;49.008;8.390;2023-03-14T06:30:21;12.00;99.90
27128;DHT22;14660;49.008;8.390;2023-03-14T06:32:48;12.00;99.90
27128;DHT22;14660;49.008;8.390;2023-03-14T06:35:16;12.00;99.90
27128;DHT22;14660;49.008;8.390;2023-03-14T06:37:43;12.10;99.90
27128;DHT22;14660;49.008;8.390;2023-03-14T06:40:11;12.10;99.90
27128;DHT22;14660;49.008;8.390;2023-03-14T06:42:40;12.10;99.90
27128;DHT22;14660;49.008;8.390;2023-03-14T06:45:08;12.20;99.90
27128;DHT22;14660;49.008;8.390;2023-03-14T06:47:35;12.30;99.90
27128;DHT22;14660;49.008;8.390;2023-03-14T06:50:04;12.30;99.90
27128;DHT22;14660;49.008;8.390;2023-03-14T06:52:31;12.50;99.90
27128;DHT22;14660;49.008;8.390;2023-03-14T06:54:58;12.50;99.90
27128;DHT22;14660;49.008;8.390;2023-03-14T06:57:25;12.50;99.90
27128;DHT22;14660;49.008;8.390;2023-03-14T06:59:51;12.60;99.90
27128;DHT22;14660;49.008;8.390;2023-03-14T07:02:20;12.60;99.90
27128;DHT22;14660;49.008;8.390;2023-03-14T07:04:47;12.70;99.90
27128;DHT22;14660;49.008;8.390;2023-03-14T07:07:13;12.70;99.90
27128;DHT22;14660;49.008;8.390;2023-03-14T07:09:40;12.60;99.90
27128;DHT22;14660;49.008;8.390;2023-03-14T07:12:07;12.70;99.90
27128;DHT22;14660;49.008;8.390;2023-03-14T07:14:34;12.70;99.90
27128;DHT22;14660;49.008;8.390;2023-03-14T07:17:00;12.70;99.90
27128;DHT22;14660;49.008;8.390;2023-03-14T07:19:28;12.80;99.90
27128;DHT22;14660;49.008;8.390;2023-03-14T07:21:55;12.80;99.90
27128;DHT22;14660;49.008;8.390;2023-03-14T07:24:21;12.80;99.90
27128;DHT22;14660;49.008;8.390;2023-03-14T07:26:49;12.90;99.90
27128;DHT22;14660;49.008;8.390;2023-03-14T07:29:16;12.90;99.90
27128;DHT22;14660;49.008;8.390;2023-03-14T07:31:43;12.90;99.90
27128;DHT22;14660;49.008;8.390;2023-03-14T07:34:10;13.00;99.90
27128;DHT22;14660;49.008;8.390;2023-03-14T07:36:37;13.00;99.90
27128;DHT22;14660;49.008;8.390;2023-03-14T07:39:04;13.00;99.90
27128;DHT22;14660;49.008;8.390;2023-03-14T07:41:31;13.20;99.90
27128;DHT22;14660;49.008;8.390;2023-03-14T07:43:58;13.20;99.90
27128;DHT22;14660;49.008;8.390;2023-03-14T07:46:26;13.40;99.90
27128;DHT22;14660;49.008;8.390;2023-03-14T07:48:53;13.30;99.90
27128;DHT22;14660;49.008;8.390;2023-03-14T07:51:21;13.50;99.90
27128;DHT22;14660;49.008;8.390;2023-03-14T07:53:49;13.60;99.90
27128;DHT22;14660;49.008;8.390;2023-03-14T07:56:16;13.70;99.90
27128;DHT22;14660;49.008;8.390;2023-03-14T07:58:43;13.90;99.90
27128;DHT22;14660;49.008;8.390;2023-03-14T08:01:09;14.00;99.90
27128;DHT22;14660;49.008;8.390;2023-03-14T08:03:36;14.00;99.90
27128;DHT22;14660;49.008;8.390;2023-03-14T08:06:03;13.90;99.90
27128;DHT22;14660;49.008;8.390;2023-03-14T08:08:29;13.90;99.90
27128;DHT22;14660;49.008;8.390;2023-03-14T08:11:06;13.80;99.90
27128;DHT22;14660;49.008;8.390;2023-03-14T08:13:36;13.70;99.90
27128;DHT22;14660;49.008;8.390;2023-03-14T08:16:04;13.80;99.90
27128;DHT22;14660;49.008;8.390;2023-03-14T08:18:31;13.90;99.90
27128;DHT22;14660;49.008;8.390;2023-03-14T08:20:57;13.80;99.90
27128;DHT22;14660;49.008;8.390;2023-03-14T08:23:24;13.70;99.90
27128;DHT22;14660;49.008;8.390;2023-03-14T08:25:52;13.60;99.90
27128;DHT22;14660;49.008;8.390;2023-03-14T08:28:18;13.60;99.90
27128;DHT22;14660;49.008;8.390;2023-03-14T08:30:45;13.50;99.90
27128;DHT22;14660;49.008;8.390;2023-03-14T08:33:12;13.40;99.90
27128;DHT22;14660;49.008;8.390;2023-03-14T08:35:39;13.30;99.90
27128;DHT22;14660;49.008;8.390;2023-03-14T08:38:07;13.30;99.90
27128;DHT22;14660;49.008;8.390;2023-03-14T08:40:33;13.30;99.90
27128;DHT22;14660;49.008;8.390;2023-03-14T08:43:02;13.40;99.90
27128;DHT22;14660;49.008;8.390;2023-03-14T08:45:30;13.40;99.90
27128;DHT22;14660;49.008;8.390;2023-03-14T08:47:57;13.50;99.90
27128;DHT22;14660;49.008;8.390;2023-03-14T08:50:25;13.70;99.90
27128;DHT22;14660;49.008;8.390;2023-03-14T08:52:51;13.70;99.90
27128;DHT22;14660;49.008;8.390;2023-03-14T08:55:18;13.80;99.90
27128;DHT22;14660;49.008;8.390;2023-03-14T08:57:46;13.80;99.90
27128;DHT22;14660;49.008;8.390;2023-03-14T09:00:13;13.90;99.90
27128;DHT22;14660;49.008;8.390;2023-03-14T09:02:42;13.90;99.90
27128;DHT22;14660;49.008;8.390;2023-03-14T09:05:10;13.90;99.90
27128;DHT22;14660;49.008;8.390;2023-03-14T09:07:38;13.90;99.90
27128;DHT22;14660;49.008;8.390;2023-03-14T09:10:07;13.90;99.90
27128;DHT22;14660;49.008;8.390;2023-03-14T09:12:34;13.80;99.90
27128;DHT22;14660;49.008;8.390;2023-03-14T09:15:01;13.80;99.90
27128;DHT22;14660;49.008;8.390;2023-03-14T09:17:28;13.90;99.90
27128;DHT22;14660;49.008;8.390;2023-03-14T09:19:55;14.00;99.90
27128;DHT22;14660;49.008;8.390;2023-03-14T09:22:22;14.20;99.90
27128;DHT22;14660;49.008;8.390;2023-03-14T09:24:50;14.30;99.90
27128;DHT22;14660;49.008;8.390;2023-03-14T09:27:17;14.40;99.90
27128;DHT22;14660;49.008;8.390;2023-03-14T09:29:44;14.50;99.90
27128;DHT22;14660;49.008;8.390;2023-03-14T09:32:10;14.60;99.90
27128;DHT22;14660;49.008;8.390;2023-03-14T09:34:37;14.60;99.90
27128;DHT22;14660;49.008;8.390;2023-03-14T09:37:04;14.60;99.90
27128;DHT22;14660;49.008;8.390;2023-03-14T09:39:31;14.50;99.90
27128;DHT22;14660;49.008;8.390;2023-03-14T09:41:58;14.50;99.90
27128;DHT22;14660;49.008;8.390;2023-03-14T09:45:03;14.40;99.90
27128;DHT22;14660;49.008;8.390;2023-03-14T09:47:34;14.40;99.90
27128;DHT22;14660;49.008;8.390;2023-03-14T09:50:02;14.30;99.90
27128;DHT22;14660;49.008;8.390;2023-03-14T09:52:36;14.30;99.90
27128;DHT22;14660;49.008;8.390;2023-03-14T09:55:22;14.30;99.90
27128;DHT22;14660;49.008;8.390;2023-03-14T09:57:57;14.20;99.90
27128;DHT22;14660;49.008;8.390;2023-03-14T10:00:27;14.20;99.90
27128;DHT22;14660;49.008;8.390;2023-03-14T10:03:41;14.10;99.90
27128;DHT22;14660;49.008;8.390;2023-03-14T10:05:44;14.30;99.90
27128;DHT22;14660;49.008;8.390;2023-03-14T10:08:13;14.20;99.90
27128;DHT22;14660;49.008;8.390;2023-03-14T10:10:40;14.20;99.90
27128;DHT22;14660;49.008;8.390;2023-03-14T10:13:27;14.20;99.90
27128;DHT22;14660;49.008;8.390;2023-03-14T10:16:14;14.20;99.90
27128;DHT22;14660;49.008;8.390;2023-03-14T10:18:45;14.20;99.90
27128;DHT22;14660;49.008;8.390;2023-03-14T10:21:35;14.30;99.90
27128;DHT22;14660;49.008;8.390;2023-03-14T10:24:28;14.20;99.90
27128;DHT22;14660;49.008;8.390;2023-03-14T10:27:02;14.20;99.90
27128;DHT22;14660;49.008;8.390;2023-03-14T10:29:51;14.10;99.90
27128;DHT22;14660;49.008;8.390;2023-03-14T10:32:32;14.00;99.90
27128;DHT22;14660;49.008;8.390;2023-03-14T10:38:03;14.00;99.90
27128;DHT22;14660;49.008;8.390;2023-03-14T10:40:36;14.10;99.90
27128;DHT22;14660;49.008;8.390;2023-03-14T10:43:06;14.10;99.90
27128;DHT22;14660;49.008;8.390;2023-03-14T10:45:41;14.00;99.90
27128;DHT22;14660;49.008;8.390;2023-03-14T10:54:22;13.70;99.90
27128;DHT22;14660;49.008;8.390;2023-03-14T10:56:57;13.50;99.90
27128;DHT22;14660;49.008;8.390;2023-03-14T10:59:24;13.40;99.90
27128;DHT22;14660;49.008;8.390;2023-03-14T11:02:34;13.40;99.90
27128;DHT22;14660;49.008;8.390;2023-03-14T11:07:37;13.50;99.90
27128;DHT22;14660;49.008;8.390;2023-03-14T11:10:34;13.50;99.90
27128;DHT22;14660;49.008;8.390;2023-03-14T11:16:44;13.20;99.90
27128;DHT22;14660;49.008;8.390;2023-03-14T11:28:18;12.80;99.90
27128;DHT22;14660;49.008;8.390;2023-03-14T11:33:37;13.00;99.90
27128;DHT22;14660;49.008;8.390;2023-03-14T11:36:10;13.10;99.90
27128;DHT22;14660;49.008;8.390;2023-03-14T11:38:57;13.20;99.90
27128;DHT22;14660;49.008;8.390;2023-03-14T11:41:28;13.10;99.90
27128;DHT22;14660;49.008;8.390;2023-03-14T11:44:03;13.00;99.90
27128;DHT22;14660;49.008;8.390;2023-03-14T11:50:03;12.60;99.90
27128;DHT22;14660;49.008;8.390;2023-03-14T11:52:37;12.40;99.90
27128;DHT22;14660;49.008;8.390;2023-03-14T11:55:33;12.30;99.90
27128;DHT22;14660;49.008;8.390;2023-03-14T11:58:36;12.20;99.90
27128;DHT22;14660;49.008;8.390;2023-03-14T12:01:08;12.20;99.90
27128;DHT22;14660;49.008;8.390;2023-03-14T12:06:49;12.10;99.90
27128;DHT22;14660;49.008;8.390;2023-03-14T12:09:21;12.10;99.90
27128;DHT22;14660;49.008;8.390;2023-03-14T12:11:56;12.20;99.90
27128;DHT22;14660;49.008;8.390;2023-03-14T12:14:33;12.20;99.90
27128;DHT22;14660;49.008;8.390;2023-03-14T12:17:20;12.20;99.90
27128;DHT22;14660;49.008;8.390;2023-03-14T12:20:25;12.20;99.90
27128;DHT22;14660;49.008;8.390;2023-03-14T12:23:03;12.30;99.90
27128;DHT22;14660;49.008;8.390;2023-03-14T12:25:34;12.20;99.90
27128;DHT22;14660;49.008;8.390;2023-03-14T12:28:18;12.20;99.90
27128;DHT22;14660;49.008;8.390;2023-03-14T12:30:45;12.30;99.90
27128;DHT22;14660;49.008;8.390;2023-03-14T12:33:20;12.30;99.90
27128;DHT22;14660;49.008;8.390;2023-03-14T12:35:59;12.50;99.90
27128;DHT22;14660;49.008;8.390;2023-03-14T12:38:58;12.60;99.90
27128;DHT22;14660;49.008;8.390;2023-03-14T12:41:46;12.60;99.90
27128;DHT22;14660;49.008;8.390;2023-03-14T12:44:44;12.80;99.90
27128;DHT22;14660;49.008;8.390;2023-03-14T12:50:08;13.00;99.90
27128;DHT22;14660;49.008;8.390;2023-03-14T13:04:47;13.00;99.90
27128;DHT22;14660;49.008;8.390;2023-03-14T13:08:03;13.00;99.90
27128;DHT22;14660;49.008;8.390;2023-03-14T13:10:29;13.00;99.90
27128;DHT22;14660;49.008;8.390;2023-03-14T13:16:02;12.80;99.90
27128;DHT22;14660;49.008;8.390;2023-03-14T13:18:58;12.70;99.90
27128;DHT22;14660;49.008;8.390;2023-03-14T13:21:28;12.80;99.90
27128;DHT22;14660;49.008;8.390;2023-03-14T13:24:03;12.70;99.90
27128;DHT22;14660;49.008;8.390;2023-03-14T13:26:56;12.60;99.90
27128;DHT22;14660;49.008;8.390;2023-03-14T13:29:33;12.60;99.90
27128;DHT22;14660;49.008;8.390;2023-03-14T13:32:12;12.50;99.90
27128;DHT22;14660;49.008;8.390;2023-03-14T13:34:43;12.50;99.90
27128;DHT22;14660;49.008;8.390;2023-03-14T13:37:24;12.50;99.90
27128;DHT22;14660;49.008;8.390;2023-03-14T13:39:54;12.50;99.90
27128;DHT22;14660;49.008;8.390;2023-03-14T13:42:26;12.40;99.90
27128;DHT22;14660;49.008;8.390;2023-03-14T13:44:55;12.40;99.90
27128;DHT22;14660;49.008;8.390;2023-03-14T13:47:26;12.40;99.90
27128;DHT22;14660;49.008;8.390;2023-03-14T13:49:56;12.40;99.90
27128;DHT22;14660;49.008;8.390;2023-03-14T13:52:42;12.40;99.90
27128;DHT22;14660;49.008;8.390;2023-03-14T13:55:17;12.40;99.90
27128;DHT22;14660;49.008;8.390;2023-03-14T13:57:46;12.50;99.90
27128;DHT22;14660;49.008;8.390;2023-03-14T14:00:25;12.50;99.90
27128;DHT22;14660;49.008;8.390;2023-03-14T14:02:55;12.40;99.90
27128;DHT22;14660;49.008;8.390;2023-03-14T14:05:22;12.50;99.90
27128;DHT22;14660;49.008;8.390;2023-03-14T14:07:50;12.40;99.90
27128;DHT22;14660;49.008;8.390;2023-03-14T14:10:19;12.40;99.90
27128;DHT22;14660;49.008;8.390;2023-03-14T14:13:06;12.60;99.90
27128;DHT22;14660;49.008;8.390;2023-03-14T14:15:39;12.60;99.90
27128;DHT22;14660;49.008;8.390;2023-03-14T14:18:11;12.60;99.90
27128;DHT22;14660;49.008;8.390;2023-03-14T14:20:43;12.60;99.90
27128;DHT22;14660;49.008;8.390;2023-03-14T14:23:12;12.70;99.90
27128;DHT22;14660;49.008;8.390;2023-03-14T14:25:43;12.90;99.90
27128;DHT22;14660;49.008;8.390;2023-03-14T14:28:32;12.90;99.90
27128;DHT22;14660;49.008;8.390;2023-03-14T14:31:18;12.90;99.90
27128;DHT22;14660;49.008;8.390;2023-03-14T14:33:54;12.90;99.90
27128;DHT22;14660;49.008;8.390;2023-03-14T14:36:41;12.90;99.90
27128;DHT22;14660;49.008;8.390;2023-03-14T14:39:34;12.60;99.90
27128;DHT22;14660;49.008;8.390;2023-03-14T14:42:01;12.70;99.90
27128;DHT22;14660;49.008;8.390;2023-03-14T14:44:35;12.60;99.90
27128;DHT22;14660;49.008;8.390;2023-03-14T14:47:03;12.50;99.90
27128;DHT22;14660;49.008;8.390;2023-03-14T14:49:31;12.70;99.90
27128;DHT22;14660;49.008;8.390;2023-03-14T14:52:11;12.60;99.90
27128;DHT22;14660;49.008;8.390;2023-03-14T14:54:44;12.60;99.90
27128;DHT22;14660;49.008;8.390;2023-03-14T14:57:27;12.60;99.90
27128;DHT22;14660;49.008;8.390;2023-03-14T15:00:03;12.30;99.90
27128;DHT22;14660;49.008;8.390;2023-03-14T15:02:46;12.40;99.90
27128;DHT22;14660;49.008;8.390;2023-03-14T15:05:22;12.30;99.90
27128;DHT22;14660;49.008;8.390;2023-03-14T15:07:50;12.40;99.90
27128;DHT22;14660;49.008;8.390;2023-03-14T15:10:20;12.40;99.90
27128;DHT22;14660;49.008;8.390;2023-03-14T15:12:47;12.30;99.90
27128;DHT22;14660;49.008;8.390;2023-03-14T15:15:15;12.20;99.90
27128;DHT22;14660;49.008;8.390;2023-03-14T15:17:42;12.30;99.90
27128;DHT22;14660;49.008;8.390;2023-03-14T15:20:15;12.30;99.90
27128;DHT22;14660;49.008;8.390;2023-03-14T15:22:43;12.20;99.90
27128;DHT22;14660;49.008;8.390;2023-03-14T15:25:11;12.10;99.90
27128;DHT22;14660;49.008;8.390;2023-03-14T15:27:38;12.20;99.90
27128;DHT22;14660;49.008;8.390;2023-03-14T15:30:15;12.30;99.90
27128;DHT22;14660;49.008;8.390;2023-03-14T15:32:45;12.40;99.90
27128;DHT22;14660;49.008;8.390;2023-03-14T15:35:12;12.30;99.90
27128;DHT22;14660;49.008;8.390;2023-03-14T15:37:41;12.30;99.90
27128;DHT22;14660;49.008;8.390;2023-03-14T15:40:12;12.30;99.90
27128;DHT22;14660;49.008;8.390;2023-03-14T15:42:41;12.30;99.90
27128;DHT22;14660;49.008;8.390;2023-03-14T15:45:07;12.20;99.90
27128;DHT22;14660;49.008;8.390;2023-03-14T15:47:35;12.20;99.90
27128;DHT22;14660;49.008;8.390;2023-03-14T15:50:02;12.10;99.90
27128;DHT22;14660;49.008;8.390;2023-03-14T15:52:30;12.10;99.90
27128;DHT22;14660;49.008;8.390;2023-03-14T15:54:57;12.00;99.90
27128;DHT22;14660;49.008;8.390;2023-03-14T15:57:23;12.00;99.90
27128;DHT22;14660;49.008;8.390;2023-03-14T15:59:51;11.90;99.90
27128;DHT22;14660;49.008;8.390;2023-03-14T16:02:18;12.00;99.90
27128;DHT22;14660;49.008;8.390;2023-03-14T16:04:45;12.00;99.90
27128;DHT22;14660;49.008;8.390;2023-03-14T16:07:12;11.80;99.90
27128;DHT22;14660;49.008;8.390;2023-03-14T16:09:38;11.80;99.90
27128;DHT22;14660;49.008;8.390;2023-03-14T16:12:05;11.80;99.90
27128;DHT22;14660;49.008;8.390;2023-03-14T16:14:34;11.80;99.90
27128;DHT22;14660;49.008;8.390;2023-03-14T16:17:00;11.90;99.90
27128;DHT22;14660;49.008;8.390;2023-03-14T16:19:27;11.70;99.90
27128;DHT22;14660;49.008;8.390;2023-03-14T16:21:54;11.80;99.90
27128;DHT22;14660;49.008;8.390;2023-03-14T16:24:22;11.70;99.90
27128;DHT22;14660;49.008;8.390;2023-03-14T16:26:48;11.50;99.90
27128;DHT22;14660;49.008;8.390;2023-03-14T16:29:16;11.50;99.90
27128;DHT22;14660;49.008;8.390;2023-03-14T16:31:43;11.40;99.90
27128;DHT22;14660;49.008;8.390;2023-03-14T16:34:10;11.40;99.90
27128;DHT22;14660;49.008;8.390;2023-03-14T16:36:37;11.40;99.90
27128;DHT22;14660;49.008;8.390;2023-03-14T16:39:04;11.30;99.90
27128;DHT22;14660;49.008;8.390;2023-03-14T16:41:31;11.20;99.90
27128;DHT22;14660;49.008;8.390;2023-03-14T16:44:00;11.10;99.90
27128;DHT22;14660;49.008;8.390;2023-03-14T16:46:27;10.90;99.90
27128;DHT22;14660;49.008;8.390;2023-03-14T16:48:56;10.80;99.90
27128;DHT22;14660;49.008;8.390;2023-03-14T16:51:23;10.80;99.90
27128;DHT22;14660;49.008;8.390;2023-03-14T16:53:50;11.00;99.90